Time;durP1;ratioP1;P1;durP2;ratioP2;P2;SDS_P1;SDS_P2;PMS_P1;PMS_P2;Temp;Humidity;BMP_temperature;BMP_pressure;BME280_temperature;BME280_humidity;BME280_pressure;Samples;Min_cycle;Max_cycle;Signal;HPM_P1;HPM_P2
2022/03/09 00:02:10;;;;;;;5.07;3.15;;;2.80;83.70;;;;;;5066909;28;20068;-71
2022/03/09 00:04:36;;;;;;;7.10;2.58;;;2.80;84.10;;;;;;5067658;28;20073;-71
2022/03/09 00:07:01;;;;;;;2.95;2.38;;;2.80;82.60;;;;;;5067485;28;20036;-71
2022/03/09 00:09:27;;;;;;;4.70;2.50;;;2.80;84.40;;;;;;5068724;28;20068;-71
2022/03/09 00:11:53;;;;;;;3.60;2.67;;;2.80;84.60;;;;;;5066854;28;20052;-71
2022/03/09 00:14:19;;;;;;;5.72;2.88;;;2.70;85.80;;;;;;5083568;28;20045;-71
2022/03/09 00:16:44;;;;;;;5.50;2.65;;;2.70;83.10;;;;;;5064666;28;20696;-71
2022/03/09 00:19:10;;;;;;;4.40;2.85;;;2.70;83.00;;;;;;5067045;28;20498;-71
2022/03/09 00:21:35;;;;;;;6.28;2.97;;;2.60;83.00;;;;;;5066287;28;20041;-71
2022/03/09 00:24:01;;;;;;;3.85;2.70;;;2.60;83.10;;;;;;5065196;28;20510;-71
2022/03/09 00:26:27;;;;;;;4.50;2.88;;;2.60;83.10;;;;;;5068503;28;20087;-71
2022/03/09 00:28:52;;;;;;;4.10;3.20;;;2.50;83.00;;;;;;5071633;28;20028;-71
2022/03/09 00:31:18;;;;;;;5.38;3.42;;;2.50;83.30;;;;;;5067099;28;20032;-71
2022/03/09 00:33:44;;;;;;;4.93;2.53;;;2.60;82.90;;;;;;5071886;28;20072;-71
2022/03/09 00:36:10;;;;;;;4.57;2.90;;;2.50;82.80;;;;;;5071254;28;20079;-71
2022/03/09 00:38:36;;;;;;;3.67;2.63;;;2.50;83.20;;;;;;5070956;28;20040;-71
2022/03/09 00:41:02;;;;;;;5.18;3.03;;;2.40;84.10;;;;;;5070865;28;20047;-71
2022/03/09 00:43:28;;;;;;;6.35;3.40;;;2.40;84.40;;;;;;5068829;28;20090;-71
2022/03/09 00:45:54;;;;;;;5.63;3.45;;;2.40;84.50;;;;;;5072213;28;20045;-71
2022/03/09 00:48:42;;;;;;;4.93;2.72;;;2.40;85.50;;;;;;5067820;28;20044;-71
2022/03/09 00:51:07;;;;;;;4.45;2.85;;;2.30;86.10;;;;;;5062379;28;20044;-71
2022/03/09 00:53:33;;;;;;;7.00;3.20;;;2.40;85.70;;;;;;5068679;28;20032;-71
2022/03/09 00:55:59;;;;;;;4.32;3.05;;;2.30;86.90;;;;;;5072112;28;20037;-71
2022/03/09 00:58:24;;;;;;;5.40;2.67;;;2.30;86.30;;;;;;5065225;28;20124;-71
2022/03/09 01:00:50;;;;;;;9.45;3.28;;;2.30;87.40;;;;;;5070207;28;20040;-71
2022/03/09 01:03:15;;;;;;;6.65;3.45;;;2.20;87.80;;;;;;5071108;28;20029;-71
2022/03/09 01:05:42;;;;;;;6.60;3.70;;;2.20;86.80;;;;;;5070797;28;20037;-71
2022/03/09 01:08:08;;;;;;;3.90;2.80;;;2.20;86.00;;;;;;5068415;28;20039;-71
2022/03/09 01:10:34;;;;;;;4.40;3.47;;;2.20;87.50;;;;;;5075789;28;20581;-71
2022/03/09 01:13:00;;;;;;;4.75;3.63;;;2.10;88.40;;;;;;5068477;28;20043;-71
2022/03/09 01:15:25;;;;;;;5.40;3.92;;;2.20;88.90;;;;;;5069535;28;20036;-71
2022/03/09 01:17:51;;;;;;;3.90;3.25;;;2.10;88.80;;;;;;5050441;28;20043;-71
2022/03/09 01:20:17;;;;;;;5.55;3.28;;;2.10;88.20;;;;;;5071698;28;20040;-71
2022/03/09 01:22:42;;;;;;;4.13;3.28;;;2.10;88.90;;;;;;5067757;28;20043;-71
2022/03/09 01:25:09;;;;;;;8.02;4.00;;;2.00;88.80;;;;;;5069800;28;20040;-71
2022/03/09 01:27:35;;;;;;;4.82;3.80;;;2.00;87.80;;;;;;5069777;28;20082;-71
2022/03/09 01:30:01;;;;;;;6.80;3.70;;;1.90;88.30;;;;;;5065721;28;20040;-71
2022/03/09 01:32:27;;;;;;;4.32;3.03;;;2.00;88.90;;;;;;5066917;28;20060;-71
2022/03/09 01:34:53;;;;;;;6.88;3.20;;;1.90;88.80;;;;;;5072599;28;20041;-71
2022/03/09 01:37:18;;;;;;;5.55;3.97;;;1.90;88.30;;;;;;5067298;28;20040;-71
2022/03/09 01:39:44;;;;;;;4.47;3.20;;;1.90;87.60;;;;;;5072872;28;20044;-71
2022/03/09 01:42:09;;;;;;;4.68;3.40;;;1.90;87.60;;;;;;5098923;28;20043;-71
2022/03/09 01:44:35;;;;;;;4.72;3.53;;;1.90;89.40;;;;;;5068815;28;20411;-71
2022/03/09 01:47:01;;;;;;;7.03;3.80;;;1.80;90.30;;;;;;5068417;28;20290;-71
2022/03/09 01:49:26;;;;;;;10.68;3.90;;;1.80;90.40;;;;;;5068570;28;20479;-70
2022/03/09 01:51:53;;;;;;;5.13;3.63;;;1.80;90.70;;;;;;5050691;28;20403;-71
2022/03/09 01:54:20;;;;;;;10.57;3.85;;;1.70;91.40;;;;;;5069219;28;20039;-72
2022/03/09 01:56:46;;;;;;;4.75;3.28;;;1.70;91.30;;;;;;5068489;28;20044;-71
2022/03/09 01:59:14;;;;;;;7.28;3.70;;;1.70;90.80;;;;;;5068948;28;20479;-71
2022/03/09 02:01:41;;;;;;;9.43;3.78;;;1.70;90.40;;;;;;5064914;28;20060;-71
2022/03/09 02:04:07;;;;;;;7.38;3.40;;;1.70;90.40;;;;;;5072330;28;20040;-70
2022/03/09 02:06:34;;;;;;;6.32;3.90;;;1.70;90.70;;;;;;5068345;28;20529;-71
2022/03/09 02:11:47;;;;;;;4.60;3.28;;;1.70;90.70;;;;;;5069962;28;20076;-71
2022/03/09 02:14:31;;;;;;;5.05;3.72;;;1.60;90.40;;;;;;5069192;28;20028;-71
2022/03/09 02:16:59;;;;;;;6.13;4.15;;;1.70;90.50;;;;;;5096681;28;20044;-70
2022/03/09 02:19:25;;;;;;;8.65;4.07;;;1.60;90.70;;;;;;5067478;28;20036;-71
2022/03/09 02:22:05;;;;;;;6.38;4.18;;;1.70;90.80;;;;;;5069083;28;20475;-71
2022/03/09 02:24:32;;;;;;;6.18;4.13;;;1.60;91.10;;;;;;5065555;28;20055;-71
2022/03/09 02:26:58;;;;;;;6.80;4.32;;;1.60;91.70;;;;;;5074374;28;20101;-71
2022/03/09 02:29:23;;;;;;;8.30;4.35;;;1.80;91.20;;;;;;5069899;28;20044;-71
2022/03/09 02:31:49;;;;;;;7.80;4.20;;;1.60;90.80;;;;;;5068738;28;20081;-70
2022/03/09 02:34:15;;;;;;;5.85;4.07;;;1.90;90.60;;;;;;5068436;28;20041;-71
2022/03/09 02:36:40;;;;;;;6.80;3.65;;;1.70;90.50;;;;;;5066800;28;20040;-71
2022/03/09 02:39:06;;;;;;;8.02;4.70;;;1.70;90.50;;;;;;5068219;28;20029;-71
2022/03/09 02:41:33;;;;;;;10.15;4.72;;;1.70;90.70;;;;;;5062267;28;20107;-71
2022/03/09 02:44:00;;;;;;;5.45;4.18;;;1.70;90.90;;;;;;5068777;28;20041;-71
2022/03/09 02:46:26;;;;;;;9.35;4.22;;;1.70;90.60;;;;;;5069940;28;20118;-72
2022/03/09 02:48:53;;;;;;;6.70;4.00;;;1.70;90.60;;;;;;5068729;28;20124;-71
2022/03/09 02:51:18;;;;;;;5.88;4.72;;;1.70;90.60;;;;;;5048776;28;20059;-71
2022/03/09 02:53:44;;;;;;;5.53;3.92;;;1.60;91.10;;;;;;5067476;28;20083;-70
2022/03/09 02:56:09;;;;;;;6.10;4.35;;;1.60;90.90;;;;;;5066366;28;20032;-70
2022/03/09 02:58:35;;;;;;;8.05;4.30;;;1.60;91.30;;;;;;5067699;28;20118;-71
2022/03/09 03:01:00;;;;;;;5.85;4.47;;;1.60;92.10;;;;;;5068779;28;20127;-71
2022/03/09 03:03:26;;;;;;;6.68;4.45;;;1.60;92.30;;;;;;5069438;28;20059;-71
2022/03/09 03:05:51;;;;;;;7.03;4.90;;;1.50;92.50;;;;;;5066168;28;20040;-71
2022/03/09 03:08:17;;;;;;;5.47;4.25;;;1.50;92.80;;;;;;5069408;28;20058;-71
2022/03/09 03:10:43;;;;;;;6.72;4.72;;;1.50;93.00;;;;;;5073950;28;20073;-71
2022/03/09 03:13:08;;;;;;;8.70;5.35;;;1.50;92.90;;;;;;5068887;28;20127;-71
2022/03/09 03:15:34;;;;;;;9.20;4.22;;;1.50;92.80;;;;;;5067435;28;20514;-71
2022/03/09 03:18:01;;;;;;;5.35;4.13;;;1.40;92.90;;;;;;5069606;28;20039;-71
2022/03/09 03:20:27;;;;;;;8.07;4.10;;;1.40;92.30;;;;;;5070437;28;20546;-71
2022/03/09 03:22:53;;;;;;;6.90;4.40;;;1.50;92.60;;;;;;5068998;28;20043;-71
2022/03/09 03:25:18;;;;;;;6.95;4.45;;;1.40;93.00;;;;;;5066262;28;20044;-71
2022/03/09 03:27:44;;;;;;;7.07;4.85;;;1.40;93.40;;;;;;5068105;28;20043;-71
2022/03/09 03:30:10;;;;;;;7.75;4.82;;;1.40;93.50;;;;;;5069116;28;20029;-71
2022/03/09 03:32:36;;;;;;;6.97;5.07;;;1.30;93.00;;;;;;5065794;28;20056;-71
2022/03/09 03:35:02;;;;;;;7.95;4.90;;;1.40;92.80;;;;;;5068491;28;20048;-71
2022/03/09 03:37:27;;;;;;;8.35;4.65;;;1.50;92.80;;;;;;5068420;28;20581;-71
2022/03/09 03:39:53;;;;;;;8.65;4.95;;;1.30;92.70;;;;;;5067483;28;20040;-71
2022/03/09 03:42:19;;;;;;;9.85;5.38;;;1.30;93.00;;;;;;5069201;28;20035;-70
2022/03/09 03:44:44;;;;;;;8.05;5.47;;;1.30;93.30;;;;;;5065144;28;20387;-70
2022/03/09 03:47:10;;;;;;;6.10;4.57;;;1.40;93.60;;;;;;5066211;28;20037;-71
2022/03/09 03:49:35;;;;;;;6.45;5.00;;;1.20;93.60;;;;;;5067272;28;20052;-70
2022/03/09 03:52:01;;;;;;;7.50;4.95;;;1.30;93.50;;;;;;5067231;28;20448;-70
2022/03/09 03:54:27;;;;;;;8.13;5.00;;;1.20;93.80;;;;;;5068266;28;20041;-71
2022/03/09 03:56:52;;;;;;;6.38;4.90;;;1.30;93.60;;;;;;5064622;28;20028;-71
2022/03/09 03:59:18;;;;;;;9.50;5.35;;;1.30;93.50;;;;;;5067386;28;20445;-70
2022/03/09 04:01:44;;;;;;;6.50;5.20;;;1.30;93.30;;;;;;5067007;28;20044;-71
2022/03/09 04:04:09;;;;;;;8.73;5.45;;;1.20;93.30;;;;;;5067250;28;20036;-71
2022/03/09 04:06:35;;;;;;;7.97;5.10;;;1.30;93.20;;;;;;5086638;28;20387;-70
2022/03/09 04:09:01;;;;;;;7.80;4.72;;;1.30;93.40;;;;;;5067930;28;20059;-70
2022/03/09 04:11:26;;;;;;;10.05;4.85;;;1.40;93.30;;;;;;5068187;28;20111;-71
2022/03/09 04:13:52;;;;;;;10.57;5.50;;;1.30;93.10;;;;;;5066851;28;20483;-70
2022/03/09 04:16:17;;;;;;;9.10;5.85;;;1.30;93.40;;;;;;5066201;28;20513;-70
2022/03/09 04:18:43;;;;;;;6.57;4.97;;;1.20;93.70;;;;;;5067498;28;20039;-70
2022/03/09 04:21:08;;;;;;;12.77;5.95;;;1.40;94.20;;;;;;5064752;28;20394;-70
2022/03/09 04:23:34;;;;;;;6.15;4.90;;;1.20;94.30;;;;;;5064570;28;20109;-71
2022/03/09 04:26:00;;;;;;;9.98;5.30;;;1.20;94.70;;;;;;5064538;28;20131;-70
2022/03/09 04:28:26;;;;;;;9.00;5.45;;;1.30;94.30;;;;;;5066717;28;20128;-70
2022/03/09 04:30:52;;;;;;;7.43;5.68;;;1.10;94.30;;;;;;5065433;28;20167;-70
2022/03/09 04:33:17;;;;;;;9.35;5.13;;;1.20;94.30;;;;;;5068786;28;20120;-71
2022/03/09 04:35:43;;;;;;;8.05;5.10;;;1.10;94.90;;;;;;5068383;28;20068;-71
2022/03/09 04:38:09;;;;;;;8.82;5.65;;;1.10;94.60;;;;;;5066460;28;20029;-70
2022/03/09 04:40:34;;;;;;;7.68;5.93;;;1.00;94.80;;;;;;5064419;28;20029;-71
2022/03/09 04:43:00;;;;;;;12.35;6.05;;;1.00;95.30;;;;;;5065235;28;20052;-70
2022/03/09 04:45:26;;;;;;;7.50;5.38;;;1.00;95.40;;;;;;5066456;28;20130;-70
2022/03/09 04:47:51;;;;;;;7.82;5.22;;;0.90;95.70;;;;;;5067064;28;20032;-70
2022/03/09 04:50:17;;;;;;;8.48;5.72;;;0.90;95.70;;;;;;5066109;28;20041;-70
2022/03/09 04:52:42;;;;;;;9.00;6.00;;;0.80;95.50;;;;;;5067465;28;20102;-70
2022/03/09 04:55:08;;;;;;;7.57;5.75;;;0.90;95.80;;;;;;5065612;28;20048;-70
2022/03/09 04:57:37;;;;;;;8.65;5.47;;;0.80;95.90;;;;;;5068252;28;20067;-70
2022/03/09 05:00:05;;;;;;;7.00;5.63;;;0.90;95.90;;;;;;5071421;28;20119;-70
2022/03/09 05:02:30;;;;;;;8.05;5.28;;;0.90;96.00;;;;;;5063983;28;20506;-71
2022/03/09 05:04:56;;;;;;;7.15;5.63;;;0.80;96.50;;;;;;5069693;28;20037;-70
2022/03/09 05:07:21;;;;;;;10.73;5.80;;;0.80;96.40;;;;;;5097378;28;20127;-70
2022/03/09 05:09:47;;;;;;;13.43;6.20;;;0.80;96.40;;;;;;5068248;28;20235;-70
2022/03/09 05:12:12;;;;;;;9.55;5.93;;;0.70;96.80;;;;;;5080702;28;20040;-70
2022/03/09 05:14:38;;;;;;;10.60;6.18;;;0.70;97.00;;;;;;5073963;28;20048;-70
2022/03/09 05:17:04;;;;;;;12.38;5.43;;;0.70;96.90;;;;;;5070363;28;20097;-70
2022/03/09 05:19:29;;;;;;;8.35;5.53;;;0.80;97.20;;;;;;5070322;28;20067;-70
2022/03/09 05:21:55;;;;;;;8.38;5.93;;;0.70;97.20;;;;;;5070946;28;20044;-70
2022/03/09 05:24:21;;;;;;;9.95;6.05;;;0.70;97.60;;;;;;5068638;28;20275;-70
2022/03/09 05:26:47;;;;;;;9.85;6.10;;;0.60;97.40;;;;;;5072094;28;20032;-71
2022/03/09 05:29:15;;;;;;;9.93;6.30;;;0.70;97.40;;;;;;5069970;28;20040;-70
2022/03/09 05:31:44;;;;;;;8.90;6.25;;;0.70;97.30;;;;;;5070857;28;20055;-70
2022/03/09 05:34:10;;;;;;;10.60;6.47;;;0.70;97.20;;;;;;5069852;28;20035;-70
2022/03/09 05:36:36;;;;;;;10.05;6.43;;;0.70;97.00;;;;;;5070149;28;20037;-70
2022/03/09 05:39:03;;;;;;;12.27;6.55;;;0.70;96.80;;;;;;5066314;28;20083;-70
2022/03/09 05:41:28;;;;;;;12.75;7.28;;;0.70;97.10;;;;;;5066304;28;20036;-71
2022/03/09 05:43:54;;;;;;;8.77;6.05;;;0.70;97.20;;;;;;5071544;28;20470;-70
2022/03/09 05:46:20;;;;;;;14.57;7.15;;;0.70;97.40;;;;;;5072055;28;20051;-70
2022/03/09 05:48:45;;;;;;;10.77;5.97;;;0.60;97.60;;;;;;5067814;28;20475;-70
2022/03/09 05:51:11;;;;;;;8.68;5.90;;;0.70;97.90;;;;;;5069899;28;20044;-70
2022/03/09 05:53:39;;;;;;;10.13;5.95;;;0.60;98.10;;;;;;5070398;28;20040;-71
2022/03/09 05:56:05;;;;;;;9.30;5.95;;;0.60;97.90;;;;;;5064690;28;20123;-70
2022/03/09 05:58:31;;;;;;;9.85;5.75;;;0.60;98.30;;;;;;5070314;28;20544;-70
2022/03/09 06:00:57;;;;;;;10.77;6.95;;;0.60;98.20;;;;;;5069484;28;20402;-70
2022/03/09 06:03:22;;;;;;;9.98;6.80;;;0.50;98.50;;;;;;5063011;28;20040;-70
2022/03/09 06:05:48;;;;;;;13.75;7.05;;;0.60;98.40;;;;;;5066715;28;20448;-71
2022/03/09 06:08:14;;;;;;;10.82;6.40;;;0.60;98.70;;;;;;5067551;28;20121;-71
2022/03/09 06:10:39;;;;;;;11.90;7.28;;;0.50;99.00;;;;;;5070221;28;20067;-71
2022/03/09 06:13:05;;;;;;;11.27;6.47;;;0.60;98.90;;;;;;5068529;28;20037;-70
2022/03/09 06:15:31;;;;;;;8.00;6.25;;;0.70;98.40;;;;;;5069472;28;20049;-70
2022/03/09 06:17:56;;;;;;;8.90;6.45;;;0.60;98.60;;;;;;5070052;28;20117;-70
2022/03/09 06:20:25;;;;;;;9.05;6.13;;;0.50;98.80;;;;;;5069163;28;20592;-70
2022/03/09 06:22:51;;;;;;;10.18;6.53;;;0.60;99.00;;;;;;5065766;28;20398;-70
2022/03/09 06:25:17;;;;;;;8.27;5.63;;;0.70;98.80;;;;;;5069603;28;20056;-71
2022/03/09 06:27:50;;;;;;;9.30;6.45;;;0.60;99.20;;;;;;5066754;28;20044;-70
2022/03/09 06:30:17;;;;;;;10.55;6.97;;;0.70;99.40;;;;;;5069688;28;20072;-71
2022/03/09 06:32:45;;;;;;;10.32;6.47;;;0.90;98.60;;;;;;5069753;28;20083;-70
2022/03/09 06:35:12;;;;;;;9.18;6.07;;;1.20;98.30;;;;;;5067191;28;20029;-71
2022/03/09 06:37:38;;;;;;;9.48;6.18;;;1.30;97.70;;;;;;5069215;28;20044;-70
2022/03/09 06:40:04;;;;;;;9.80;5.45;;;1.50;96.80;;;;;;5097777;28;20039;-71
2022/03/09 06:42:30;;;;;;;9.00;5.95;;;1.70;95.50;;;;;;5070433;28;20072;-72
2022/03/09 06:44:57;;;;;;;7.65;5.75;;;2.00;95.00;;;;;;5068718;28;20119;-71
2022/03/09 06:47:22;;;;;;;10.10;5.70;;;2.50;93.50;;;;;;5100355;28;20048;-71
2022/03/09 06:49:48;;;;;;;9.23;5.82;;;3.20;92.40;;;;;;5070356;28;20043;-72
2022/03/09 06:52:14;;;;;;;8.82;5.85;;;3.80;91.60;;;;;;5067332;28;20124;-72
2022/03/09 06:54:40;;;;;;;7.05;5.35;;;4.40;89.60;;;;;;5068069;28;20044;-72
2022/03/09 06:57:05;;;;;;;9.13;5.88;;;4.80;85.90;;;;;;5067011;28;20093;-72
2022/03/09 06:59:31;;;;;;;9.38;6.13;;;5.20;83.60;;;;;;5061273;28;20507;-72
2022/03/09 07:01:56;;;;;;;7.95;6.13;;;5.30;82.00;;;;;;5068515;28;20044;-71
2022/03/09 07:04:22;;;;;;;7.22;5.65;;;5.40;80.70;;;;;;5066813;28;20044;-72
2022/03/09 07:06:48;;;;;;;9.25;6.03;;;5.80;81.10;;;;;;5063289;28;20048;-72
2022/03/09 07:09:14;;;;;;;7.32;5.40;;;6.10;79.60;;;;;;5050094;28;20082;-73
2022/03/09 07:11:41;;;;;;;7.88;5.95;;;6.40;76.60;;;;;;5096407;28;20044;-72
2022/03/09 07:14:07;;;;;;;9.55;5.22;;;6.50;74.90;;;;;;5068175;28;20121;-72
2022/03/09 07:16:33;;;;;;;6.85;6.00;;;6.70;75.90;;;;;;5066794;28;20040;-72
2022/03/09 07:18:59;;;;;;;9.85;5.78;;;6.20;74.10;;;;;;5066110;28;20379;-72
2022/03/09 07:21:24;;;;;;;8.27;5.25;;;6.30;75.90;;;;;;5067749;28;20114;-72
2022/03/09 07:23:50;;;;;;;7.97;5.55;;;6.30;74.60;;;;;;5064443;28;20120;-73
2022/03/09 07:26:15;;;;;;;10.50;5.90;;;6.40;75.20;;;;;;5062651;28;20129;-73
2022/03/09 07:28:41;;;;;;;6.78;5.80;;;6.30;74.30;;;;;;5066147;28;20094;-73
2022/03/09 07:31:06;;;;;;;6.60;5.72;;;6.00;73.90;;;;;;5066546;28;20036;-72
2022/03/09 07:33:32;;;;;;;9.27;5.43;;;5.90;75.70;;;;;;5065840;28;20469;-72
2022/03/09 07:36:00;;;;;;;9.73;6.03;;;5.90;76.80;;;;;;5064469;28;20570;-72
2022/03/09 07:38:26;;;;;;;7.18;5.00;;;5.60;75.90;;;;;;5063274;28;20098;-72
2022/03/09 07:40:51;;;;;;;6.53;5.28;;;5.50;78.30;;;;;;5063383;28;20052;-72
2022/03/09 07:43:17;;;;;;;13.73;5.18;;;5.40;78.40;;;;;;5061161;28;20040;-72
2022/03/09 07:45:43;;;;;;;9.48;5.05;;;5.20;78.80;;;;;;5066460;28;20060;-72
2022/03/09 07:48:09;;;;;;;6.30;5.25;;;5.00;79.60;;;;;;5099516;28;20044;-72
2022/03/09 07:50:36;;;;;;;6.40;5.38;;;4.90;81.50;;;;;;5067831;28;20040;-72
2022/03/09 07:53:06;;;;;;;7.88;5.68;;;4.90;81.80;;;;;;5070227;28;20494;-72
2022/03/09 07:55:32;;;;;;;10.07;5.95;;;4.80;80.90;;;;;;5063611;28;20075;-72
2022/03/09 07:57:58;;;;;;;9.70;5.38;;;4.60;81.90;;;;;;5066060;28;20348;-72
2022/03/09 08:00:24;;;;;;;6.97;5.88;;;4.40;82.50;;;;;;5064442;28;20052;-72
2022/03/09 08:02:49;;;;;;;7.93;5.43;;;4.50;82.70;;;;;;5080580;28;20046;-72
2022/03/09 08:05:16;;;;;;;7.28;6.13;;;4.60;84.80;;;;;;5098939;28;20036;-72
2022/03/09 08:07:43;;;;;;;7.90;5.72;;;4.70;84.40;;;;;;5063244;28;20086;-72
2022/03/09 08:10:10;;;;;;;9.75;5.82;;;4.60;82.00;;;;;;5062974;28;20040;-72
2022/03/09 08:12:36;;;;;;;9.73;5.57;;;4.60;82.40;;;;;;5066589;28;20166;-71
2022/03/09 08:15:03;;;;;;;7.00;4.85;;;4.70;82.50;;;;;;5069206;28;20513;-71
2022/03/09 08:17:29;;;;;;;8.10;5.90;;;4.80;81.90;;;;;;5066584;28;20155;-71
2022/03/09 08:19:55;;;;;;;8.95;5.38;;;4.80;81.50;;;;;;5064087;28;20164;-72
2022/03/09 08:22:21;;;;;;;8.07;5.32;;;4.80;82.30;;;;;;5068150;28;20032;-72
2022/03/09 08:24:48;;;;;;;6.03;5.13;;;4.90;82.60;;;;;;5066122;28;20052;-72
2022/03/09 08:27:13;;;;;;;10.00;5.68;;;4.90;82.60;;;;;;5065821;28;20475;-72
2022/03/09 08:29:39;;;;;;;8.68;5.70;;;5.00;84.90;;;;;;5065959;28;20039;-72
2022/03/09 08:32:05;;;;;;;9.18;5.10;;;5.00;83.70;;;;;;5066163;28;20036;-71
2022/03/09 08:34:31;;;;;;;7.68;5.55;;;5.20;83.60;;;;;;5066272;28;20037;-72
2022/03/09 08:36:57;;;;;;;7.53;5.45;;;5.30;83.50;;;;;;5063803;28;20474;-71
2022/03/09 08:39:22;;;;;;;8.13;5.22;;;5.40;82.70;;;;;;5065717;28;20071;-73
2022/03/09 08:41:48;;;;;;;10.25;5.50;;;5.40;82.20;;;;;;5094383;28;20045;-72
2022/03/09 08:44:16;;;;;;;7.40;5.35;;;5.50;83.00;;;;;;5067008;28;20044;-72
2022/03/09 08:46:42;;;;;;;7.20;4.43;;;5.60;81.70;;;;;;5067505;28;20329;-72
2022/03/09 08:49:07;;;;;;;8.32;5.15;;;5.80;78.20;;;;;;5068828;28;20111;-72
2022/03/09 08:51:33;;;;;;;7.90;5.07;;;5.90;79.10;;;;;;5068262;28;20131;-72
2022/03/09 08:53:59;;;;;;;7.32;5.25;;;6.10;78.30;;;;;;5067546;28;20052;-73
2022/03/09 08:56:28;;;;;;;8.80;5.38;;;6.20;78.00;;;;;;5067981;28;20036;-73
2022/03/09 08:58:55;;;;;;;8.02;5.05;;;6.30;77.00;;;;;;5068296;28;20037;-72
2022/03/09 09:01:22;;;;;;;7.85;5.18;;;6.50;75.50;;;;;;5065788;28;20044;-72
2022/03/09 09:03:47;;;;;;;5.88;4.50;;;6.70;76.00;;;;;;5068969;28;20045;-72
2022/03/09 09:06:14;;;;;;;8.90;5.00;;;6.90;74.10;;;;;;5067106;28;20473;-72
2022/03/09 09:08:40;;;;;;;8.15;4.57;;;7.00;72.60;;;;;;5070250;28;20086;-72
2022/03/09 09:11:06;;;;;;;7.40;4.45;;;7.10;69.50;;;;;;5069485;28;20165;-72
2022/03/09 09:13:32;;;;;;;6.95;4.68;;;7.20;68.70;;;;;;5069178;28;20048;-72
2022/03/09 09:15:58;;;;;;;7.45;4.55;;;7.30;68.90;;;;;;5099567;28;20098;-72
2022/03/09 09:18:25;;;;;;;6.10;4.93;;;7.40;68.30;;;;;;5067853;28;20461;-72
2022/03/09 09:20:52;;;;;;;7.68;5.03;;;7.50;67.90;;;;;;5066862;28;20584;-72
2022/03/09 09:23:18;;;;;;;9.23;5.38;;;7.50;66.90;;;;;;5068041;28;20029;-72
2022/03/09 09:25:45;;;;;;;7.35;5.00;;;7.60;68.00;;;;;;5067497;28;20143;-71
2022/03/09 09:28:11;;;;;;;6.32;4.90;;;7.70;67.30;;;;;;5068589;28;20101;-72
2022/03/09 09:30:37;;;;;;;6.28;4.63;;;7.80;68.30;;;;;;5065769;28;20033;-72
2022/03/09 09:33:03;;;;;;;9.52;5.32;;;7.90;69.90;;;;;;5070901;28;20082;-72
2022/03/09 09:35:29;;;;;;;8.80;5.57;;;8.00;66.70;;;;;;5067273;28;20067;-72
2022/03/09 09:37:55;;;;;;;6.88;4.70;;;8.10;68.20;;;;;;5069315;28;20048;-72
2022/03/09 09:40:23;;;;;;;8.00;5.22;;;8.30;66.40;;;;;;5067352;28;20067;-72
2022/03/09 09:42:49;;;;;;;11.20;5.32;;;8.40;67.50;;;;;;5071158;28;20859;-72
2022/03/09 09:45:15;;;;;;;6.78;4.97;;;8.40;66.70;;;;;;5069086;28;20120;-72
2022/03/09 09:47:41;;;;;;;5.57;4.70;;;8.60;67.60;;;;;;5069555;28;20457;-72
2022/03/09 09:50:08;;;;;;;7.82;4.68;;;8.60;63.90;;;;;;5067390;28;20037;-72
2022/03/09 09:52:33;;;;;;;5.93;4.75;;;8.70;62.70;;;;;;5067379;28;20120;-72
2022/03/09 09:55:02;;;;;;;10.00;5.15;;;8.80;63.90;;;;;;5050753;28;20123;-72
2022/03/09 09:57:29;;;;;;;6.15;4.55;;;8.80;64.90;;;;;;5068843;28;20069;-73
2022/03/09 09:59:56;;;;;;;6.28;4.82;;;8.80;61.40;;;;;;5066365;28;20032;-72
2022/03/09 10:02:21;;;;;;;9.02;5.18;;;8.80;62.80;;;;;;5068491;28;20384;-72
2022/03/09 10:04:47;;;;;;;8.82;5.60;;;8.80;62.50;;;;;;5066500;28;20143;-72
2022/03/09 10:07:14;;;;;;;7.18;5.22;;;8.80;62.10;;;;;;5064964;28;20051;-73
2022/03/09 10:09:41;;;;;;;8.35;5.38;;;9.00;63.10;;;;;;5067748;28;20053;-72
2022/03/09 10:12:08;;;;;;;10.68;5.28;;;9.10;65.90;;;;;;5067361;28;20070;-72
2022/03/09 10:14:41;;;;;;;6.20;4.68;;;9.20;64.30;;;;;;5064769;28;20051;-72
2022/03/09 10:17:16;;;;;;;8.75;5.43;;;9.40;61.70;;;;;;5064848;28;20665;-72
2022/03/09 10:19:45;;;;;;;6.97;5.88;;;9.40;60.70;;;;;;5066310;28;20044;-72
2022/03/09 10:22:37;;;;;;;7.13;4.63;;;9.60;60.90;;;;;;5063941;28;20040;-72
2022/03/09 10:25:09;;;;;;;11.35;5.20;;;9.60;61.00;;;;;;5096526;28;20094;-72
2022/03/09 10:27:45;;;;;;;9.45;5.40;;;9.70;59.70;;;;;;5068843;28;20036;-72
2022/03/09 10:30:24;;;;;;;7.60;5.25;;;9.80;60.80;;;;;;5066470;28;20036;-72
2022/03/09 10:32:59;;;;;;;5.75;4.38;;;9.90;60.00;;;;;;5081942;28;20075;-72
2022/03/09 10:35:31;;;;;;;7.75;4.95;;;10.10;62.40;;;;;;5064939;28;20139;-72
2022/03/09 10:37:58;;;;;;;7.90;5.72;;;10.10;62.20;;;;;;5065316;28;20037;-73
2022/03/09 10:40:25;;;;;;;8.43;5.72;;;10.30;62.30;;;;;;5067558;28;20040;-72
2022/03/09 10:42:52;;;;;;;6.80;5.72;;;10.60;63.90;;;;;;5066913;28;20055;-73
2022/03/09 10:45:18;;;;;;;9.43;5.70;;;10.70;59.70;;;;;;5069329;28;20077;-73
2022/03/09 10:47:47;;;;;;;8.63;5.90;;;10.90;59.90;;;;;;5066692;28;20049;-73
2022/03/09 10:50:19;;;;;;;9.23;5.28;;;11.00;58.20;;;;;;5072923;28;20066;-73
2022/03/09 10:52:45;;;;;;;6.50;5.57;;;11.20;59.80;;;;;;5066745;28;20060;-73
2022/03/09 10:55:32;;;;;;;9.27;6.20;;;11.10;56.50;;;;;;5068859;28;20044;-73
2022/03/09 10:58:09;;;;;;;6.50;5.78;;;10.70;57.10;;;;;;5067338;28;20128;-73
2022/03/09 11:00:39;;;;;;;8.65;5.30;;;10.60;55.90;;;;;;5080797;28;20072;-73
2022/03/09 11:03:11;;;;;;;9.45;6.18;;;10.70;58.70;;;;;;5042996;28;20036;-74
2022/03/09 11:05:52;;;;;;;7.63;6.15;;;11.00;58.60;;;;;;5066809;28;20044;-73
2022/03/09 11:08:20;;;;;;;7.00;5.95;;;10.90;57.20;;;;;;5066373;28;20391;-73
2022/03/09 11:10:46;;;;;;;6.38;5.45;;;11.20;56.90;;;;;;5067554;28;20045;-73
2022/03/09 11:13:13;;;;;;;10.52;5.60;;;11.30;59.30;;;;;;5066325;28;20051;-73
2022/03/09 11:15:42;;;;;;;10.55;6.10;;;11.40;55.60;;;;;;5063750;28;20036;-73
2022/03/09 11:18:17;;;;;;;9.32;5.55;;;11.60;56.20;;;;;;5068424;28;20047;-73
2022/03/09 11:20:45;;;;;;;7.20;5.38;;;11.80;56.10;;;;;;5066261;28;20041;-73
2022/03/09 11:23:12;;;;;;;7.53;5.63;;;11.90;55.10;;;;;;5068022;28;20115;-73
2022/03/09 11:25:41;;;;;;;7.22;5.80;;;12.10;53.40;;;;;;5068018;28;20044;-73
2022/03/09 11:28:08;;;;;;;13.23;5.25;;;12.30;52.90;;;;;;5067314;28;20486;-73
2022/03/09 11:30:33;;;;;;;7.65;5.95;;;12.30;53.20;;;;;;5062688;28;20043;-73
2022/03/09 11:33:00;;;;;;;10.27;5.68;;;11.90;56.60;;;;;;5067052;28;20040;-73
2022/03/09 11:35:37;;;;;;;9.20;5.70;;;12.20;56.70;;;;;;5061428;28;20036;-73
2022/03/09 11:38:33;;;;;;;8.23;6.05;;;12.40;53.40;;;;;;5066305;28;20036;-73
2022/03/09 11:41:15;;;;;;;9.23;6.38;;;12.50;54.10;;;;;;5084954;28;20098;-73
2022/03/09 11:43:41;;;;;;;9.25;6.05;;;12.60;55.70;;;;;;5062200;28;20028;-73
2022/03/09 11:46:07;;;;;;;7.15;5.75;;;12.70;53.30;;;;;;5063538;28;20086;-73
2022/03/09 11:49:09;;;;;;;6.95;5.90;;;12.50;53.50;;;;;;5065099;28;20394;-73
2022/03/09 11:51:34;;;;;;;8.48;6.03;;;12.40;52.00;;;;;;5040494;28;20110;-73
2022/03/09 11:54:00;;;;;;;7.68;6.07;;;12.30;53.00;;;;;;5057958;28;20048;-73
2022/03/09 11:56:27;;;;;;;8.80;6.40;;;12.50;54.90;;;;;;5063533;28;20118;-73
2022/03/09 11:59:12;;;;;;;8.95;6.00;;;12.50;52.60;;;;;;5065831;28;20094;-73
2022/03/09 12:02:11;;;;;;;7.47;6.25;;;12.70;52.90;;;;;;5059721;28;20048;-73
2022/03/09 12:04:40;;;;;;;6.93;6.22;;;12.30;52.70;;;;;;5043448;28;20044;-73
2022/03/09 12:07:06;;;;;;;9.35;6.43;;;11.80;53.80;;;;;;5064995;28;20158;-74
2022/03/09 12:09:51;;;;;;;8.10;6.93;;;11.60;54.30;;;;;;5062995;28;20081;-73
2022/03/09 12:12:16;;;;;;;8.45;6.35;;;11.70;56.90;;;;;;5063296;28;20051;-73
2022/03/09 12:15:07;;;;;;;9.57;6.45;;;11.70;58.10;;;;;;5059685;28;20051;-73
2022/03/09 12:17:38;;;;;;;7.55;6.53;;;11.70;55.70;;;;;;5061606;28;20036;-73
2022/03/09 12:20:30;;;;;;;9.13;6.63;;;11.80;56.60;;;;;;5062197;28;20048;-73
2022/03/09 12:22:56;;;;;;;10.05;6.55;;;11.90;55.70;;;;;;5070711;28;20048;-73
2022/03/09 12:25:44;;;;;;;7.57;6.32;;;11.80;55.00;;;;;;5070224;28;20044;-73
2022/03/09 12:28:34;;;;;;;8.60;7.05;;;11.70;55.80;;;;;;5070553;28;20032;-73
2022/03/09 12:31:02;;;;;;;7.82;6.57;;;11.60;54.70;;;;;;5057517;28;20411;-73
2022/03/09 12:33:28;;;;;;;6.75;5.63;;;11.70;56.70;;;;;;5067854;28;20047;-73
2022/03/09 12:36:06;;;;;;;9.68;6.30;;;11.60;54.30;;;;;;5064368;28;20669;-73
2022/03/09 12:38:40;;;;;;;9.88;6.55;;;11.70;55.70;;;;;;5069488;28;20122;-73
2022/03/09 12:41:30;;;;;;;7.20;6.45;;;11.90;55.20;;;;;;5070357;28;20123;-73
2022/03/09 12:44:02;;;;;;;10.40;6.38;;;12.00;56.40;;;;;;5069057;28;20048;-73
2022/03/09 12:46:29;;;;;;;7.43;6.03;;;12.10;55.00;;;;;;5066461;28;20116;-73
2022/03/09 12:49:04;;;;;;;9.07;6.45;;;12.10;55.50;;;;;;5068760;28;20044;-73
2022/03/09 12:51:31;;;;;;;10.55;6.47;;;12.40;52.50;;;;;;5070414;28;20127;-73
2022/03/09 12:53:57;;;;;;;10.73;6.82;;;12.70;52.20;;;;;;5070662;28;20045;-73
2022/03/09 12:56:24;;;;;;;8.23;6.82;;;12.60;53.40;;;;;;5070978;28;20044;-73
2022/03/09 12:58:50;;;;;;;7.50;6.28;;;12.80;50.60;;;;;;5102746;28;20164;-73